This is the latest recevied weather packets stored in our database for station/object CE1RLP-34. If no packets are shown the sender has not sent any weather packets the latest 10 day(s).
| Time | Temp. | Humidity | Pressure | Rain* | Wind** | Luminosity | Snow |
|---|---|---|---|---|---|---|---|
| 1777920603 | 33.33° C | 4% | 1081.7 hPa | - | - | - | - |
| 1777919703 | 33.33° C | 4% | 1081.7 hPa | - | - | - | - |
| 1777918801 | 32.22° C | 5% | 1081.3 hPa | - | - | - | - |
| 1777917031 | 32.22° C | 4% | 1082 hPa | - | - | - | - |
| 1777916127 | 31.67° C | 5% | 1082.1 hPa | - | - | - | - |
| 1777915226 | 31.67° C | 4% | 1082.3 hPa | - | - | - | - |
| 1777914325 | 31.11° C | 4% | 1082.4 hPa | - | - | - | - |
| 1777913422 | 31.11° C | 4% | 1082.6 hPa | - | - | - | - |
| 1777912523 | 30.56° C | 4% | 1082.3 hPa | - | - | - | - |
| 1777911620 | 31.11° C | 4% | 1082.7 hPa | - | - | - | - |
| 1777910720 | 31.11° C | 4% | 1082.8 hPa | - | - | - | - |
| 1777909817 | 30.56° C | 4% | 1083 hPa | - | - | - | - |
| 1777908917 | 30.56° C | 4% | 1083.1 hPa | - | - | - | - |
| 1777908015 | 30.56° C | 4% | 1083.2 hPa | - | - | - | - |
| 1777907115 | 30° C | 5% | 1083.2 hPa | - | - | - | - |
| 1777906213 | 28.89° C | 5% | 1083.2 hPa | - | - | - | - |
| 1777905312 | 28.33° C | 6% | 1083.3 hPa | - | - | - | - |
| 1777904410 | 27.22° C | 6% | 1083.2 hPa | - | - | - | - |
| 1777903510 | 26.11° C | 6% | 1083.2 hPa | - | - | - | - |
| 1777902607 | 25° C | 6% | 1083.1 hPa | - | - | - | - |
| 1777901707 | 23.89° C | 7% | 1082.9 hPa | - | - | - | - |
| 1777900805 | 22.22° C | 7% | 1082.7 hPa | - | - | - | - |
| 1777899905 | 21.11° C | 7% | 1082.8 hPa | - | - | - | - |
| 1777899002 | 18.89° C | 7% | 1082.6 hPa | - | - | - | - |
| 1777898103 | 18.33° C | 7% | 1082.6 hPa | - | - | - | - |
* Rain since midnight (hover to see other rain measurements)
** Current wind speed in m/s (hover to see current wind gust speed)